MES3116 KDTW-KTVC
Flight info
| Callsign | MES3116 |
|---|---|
| Flight time | N/A |
| Altitude | 22000 |
| Route | MIGGY3 HUBBY |
| Aircraft | SF34/M-SDFGR/S |
Departure
| Time | 2026-05-01 15:28 |
|---|---|
| Airport | Detroit Metropolitan Wayne County Airport (KDTW) |
Arrival
| Time | N/A |
|---|---|
| Airport | Cherry Capital Airport (KTVC) |
| Time | Latitude | Longitude | Altitude | Speed | Heading |
|---|---|---|---|---|---|
| 2026-05-01 14:58 | 42.21117 | -83.36109 | 642 ft | 0 kts | 119° |
| 2026-05-01 15:14 | 42.21133 | -83.36149 | 641 ft | 3 kts | 119° |
| 2026-05-01 15:14 | 42.21147 | -83.36169 | 641 ft | 4 kts | 184° |
| 2026-05-01 15:14 | 42.21176 | -83.36153 | 641 ft | 0 kts | 209° |
| 2026-05-01 15:24 | 42.21146 | -83.36176 | 641 ft | 12 kts | 209° |
| 2026-05-01 15:24 | 42.21066 | -83.36236 | 641 ft | 7 kts | 208° |
| 2026-05-01 15:24 | 42.21052 | -83.36246 | 641 ft | 7 kts | 208° |
| 2026-05-01 15:24 | 42.20988 | -83.36292 | 641 ft | 14 kts | 207° |
| 2026-05-01 15:25 | 42.20909 | -83.36350 | 641 ft | 16 kts | 210° |
| 2026-05-01 15:25 | 42.20791 | -83.36437 | 642 ft | 22 kts | 209° |
| 2026-05-01 15:25 | 42.20697 | -83.36508 | 642 ft | 14 kts | 219° |
| 2026-05-01 15:25 | 42.20675 | -83.36631 | 642 ft | 12 kts | 220° |
| 2026-05-01 15:26 | 42.20569 | -83.36712 | 642 ft | 19 kts | 209° |
| 2026-05-01 15:26 | 42.20449 | -83.36801 | 642 ft | 21 kts | 208° |
| 2026-05-01 15:26 | 42.20344 | -83.36880 | 642 ft | 11 kts | 219° |
| 2026-05-01 15:26 | 42.20349 | -83.36991 | 641 ft | 13 kts | 319° |
| 2026-05-01 15:27 | 42.20421 | -83.36990 | 641 ft | 0 kts | 30° |
| 2026-05-01 15:27 | 42.20459 | -83.36961 | 640 ft | 30 kts | 28° |
| 2026-05-01 15:27 | 42.20842 | -83.36692 | 642 ft | 93 kts | 28° |
| 2026-05-01 15:28 | 42.22451 | -83.35482 | 984 ft | 161 kts | 25° |
| 2026-05-01 15:28 | 42.23470 | -83.34663 | 1469 ft | 170 kts | 29° |
| 2026-05-01 15:28 | 42.24430 | -83.33911 | 2577 ft | 154 kts | 28° |
| 2026-05-01 15:29 | 42.26525 | -83.33799 | 4078 ft | 154 kts | 3° |
| 2026-05-01 15:29 | 42.27607 | -83.33754 | 4850 ft | 156 kts | 359° |
| 2026-05-01 15:29 | 42.29728 | -83.33806 | 6415 ft | 154 kts | 358° |
| 2026-05-01 15:30 | 42.32119 | -83.33858 | 6989 ft | 198 kts | 357° |
| 2026-05-01 15:31 | 42.38150 | -83.34002 | 7107 ft | 213 kts | 358° |
| 2026-05-01 15:31 | 42.40835 | -83.34067 | 8381 ft | 186 kts | 355° |
| 2026-05-01 15:32 | 42.43464 | -83.34128 | 9245 ft | 190 kts | 354° |
| 2026-05-01 15:32 | 42.46117 | -83.34192 | 10142 ft | 193 kts | 353° |
| 2026-05-01 15:33 | 42.49976 | -83.35150 | 11311 ft | 185 kts | 308° |
| 2026-05-01 15:34 | 42.52357 | -83.39320 | 12595 ft | 189 kts | 301° |